Weather History for KHEZ - March, 2012

Change the Weather History Date:

Monday, March 5, 2012

  Actual Average Record
Temperature  
Mean Temperature 60 °F -  
Max Temperature 73 °F 68 °F 83 °F (1963)
Min Temperature 46 °F 44 °F 23 °F (1960)
Degree Days  
Heating Degree Days 6    
Growing Degree Days 10 (Base 50)    
Moisture  
Dew Point 38 °F    
Average Humidity 45    
Maximum Humidity 71    
Minimum Humidity 27    
Precipitation  
Precipitation 0.02 in - - ()
Sea Level Pressure  
Sea Level Pressure 30.31 in    
Wind  
Wind Speed 6 mph (West)    
Max Wind Speed 10 mph    
Max Gust Speed -    
Visibility 10 miles    
Events      
Averages and records for this station are not official NWS values.
T = Trace of Precipitation, MM = Missing Value Source: NWS Daily Summary

Daily Weather History Graph

Daily Weather History Graph

Search for Another Location

Airport or City:

Trip Planner

Search our weather history database for the weather conditions in past years. The results will help you decide how hot, cold, wet, or windy it might be!

Date:

Astronomy

Mar. 05, 2012 Rise Set
Actual Time 6:26 AM CST 6:06 PM CST
Civil Twilight 6:02 AM CST 6:30 PM CST
Nautical Twilight 5:34 AM CST 6:59 PM CST
Astronomical Twilight 5:06 AM CST 7:27 PM CST
Moon 3:32 PM CST (3/5) 4:17 AM CST (3/5)
Length of Visible Light 12h 28m
Length of Day
11h 39m
Waxing Gibbous, 91% of the Moon is Illuminated
Mar 5
Waxing Gibbous
Mar 8
Full
Mar 14
Last Quarter
Mar 22
New
Mar 30
First Quarter

Hourly Weather History & Observations

Time (CST) Temp. Windchill Dew Point Humidity Pressure Visibility Wind Dir Wind Speed Gust Speed Precip Events Conditions
12:15 AM 53.6 °F - 37.4 °F 54% 30.22 in 10.0 mi SW 8.1 mph - N/A   Clear
12:35 AM 53.6 °F - 39.2 °F 58% 30.22 in 10.0 mi SW 8.1 mph - N/A   Clear
12:55 AM 53.6 °F - 39.2 °F 58% 30.23 in 10.0 mi SSW 8.1 mph - N/A   Clear
1:15 AM 53.6 °F - 39.2 °F 58% 30.23 in 10.0 mi SW 8.1 mph - N/A   Clear
1:35 AM 53.6 °F - 39.2 °F 58% 30.24 in 10.0 mi SW 6.9 mph - N/A   Clear
1:55 AM 53.6 °F - 39.2 °F 58% 30.24 in 10.0 mi SW 8.1 mph - N/A   Clear
2:15 AM 53.6 °F - 39.2 °F 58% 30.24 in 10.0 mi SSW 8.1 mph - N/A   Clear
2:35 AM 53.6 °F - 37.4 °F 54% 30.24 in 10.0 mi SW 8.1 mph - N/A   Clear
2:55 AM 53.6 °F - 37.4 °F 54% 30.24 in 10.0 mi SW 10.4 mph - N/A   Clear
3:15 AM 51.8 °F - 37.4 °F 58% 30.24 in 10.0 mi SW 5.8 mph - N/A   Clear
3:35 AM 51.8 °F - 37.4 °F 58% 30.25 in 10.0 mi SW 6.9 mph - N/A   Clear
3:55 AM 51.8 °F - 37.4 °F 58% 30.25 in 10.0 mi SW 5.8 mph - N/A   Clear
4:15 AM 51.8 °F - 37.4 °F 58% 30.25 in 10.0 mi SW 5.8 mph - N/A   Clear
4:35 AM 51.8 °F - 37.4 °F 58% 30.26 in 10.0 mi SW 5.8 mph - N/A   Clear
4:55 AM 51.8 °F - 37.4 °F 58% 30.27 in 10.0 mi SW 4.6 mph - N/A   Clear
5:15 AM 50.0 °F - 37.4 °F 62% 30.27 in 10.0 mi SSW 4.6 mph - N/A   Clear
5:35 AM 48.2 °F - 35.6 °F 62% 30.28 in 10.0 mi SSW 4.6 mph - N/A   Clear
5:55 AM 46.4 °F 44.3 °F 35.6 °F 66% 30.29 in 10.0 mi SSW 4.6 mph - N/A   Clear
6:16 AM 46.4 °F 44.3 °F 35.6 °F 66% 30.29 in 10.0 mi SSW 4.6 mph - N/A   Clear
6:35 AM 46.4 °F 45.2 °F 35.6 °F 66% 30.29 in 10.0 mi SW 3.5 mph - N/A   Clear
6:55 AM 46.4 °F - 37.4 °F 71% 30.30 in 10.0 mi Calm Calm - N/A   Clear
7:15 AM 48.2 °F - 37.4 °F 66% 30.32 in 10.0 mi Calm Calm - N/A   Clear
7:35 AM 51.8 °F - 39.2 °F 62% 30.33 in 10.0 mi Calm Calm - N/A   Clear
7:55 AM 53.6 °F - 39.2 °F 58% 30.34 in 10.0 mi Calm Calm - N/A   Clear
8:15 AM 55.4 °F - 41.0 °F 58% 30.36 in 10.0 mi West 4.6 mph - N/A   Clear
8:35 AM 57.2 °F - 39.2 °F 51% 30.36 in 10.0 mi WNW 6.9 mph - N/A   Clear
8:55 AM 60.8 °F - 37.4 °F 42% 30.37 in 10.0 mi NW 9.2 mph - N/A   Clear
9:15 AM 60.8 °F - 39.2 °F 45% 30.38 in 10.0 mi North 9.2 mph - N/A   Clear
9:35 AM 60.8 °F - 37.4 °F 42% 30.38 in 10.0 mi North 10.4 mph - N/A   Clear
9:55 AM 62.6 °F - 37.4 °F 39% 30.38 in 10.0 mi North 10.4 mph - N/A   Clear
10:15 AM 62.6 °F - 37.4 °F 39% 30.38 in 10.0 mi NNW 6.9 mph - N/A   Clear
10:35 AM 64.4 °F - 37.4 °F 37% 30.38 in 10.0 mi Calm Calm - N/A   Clear
10:55 AM 64.4 °F - 37.4 °F 37% 30.39 in 10.0 mi NE 5.8 mph - N/A   Unknown
11:15 AM 66.2 °F - 39.2 °F 37% 30.38 in 10.0 mi ENE 6.9 mph - N/A   Clear
11:35 AM 68.0 °F - 39.2 °F 35% 30.38 in - NE 6.9 mph - N/A   Unknown
11:55 AM 68.0 °F - 37.4 °F 33% 30.38 in - North 6.9 mph - N/A   Clear
12:15 PM 69.8 °F - 39.2 °F 33% 30.37 in 10.0 mi North 3.5 mph - N/A   Partly Cloudy
12:35 PM 71.6 °F - 39.2 °F 31% 30.36 in 10.0 mi ESE 3.5 mph - 0.02 in   Partly Cloudy
12:55 PM 71.6 °F - 37.4 °F 29% 30.35 in 10.0 mi Calm Calm - 0.02 in   Clear
1:15 PM 71.6 °F - 37.4 °F 29% 30.34 in 10.0 mi Calm Calm - N/A   Clear
1:35 PM 73.4 °F - 39.2 °F 29% 30.33 in 10.0 mi WNW 4.6 mph - N/A   Clear
1:55 PM 73.4 °F - 39.2 °F 29% 30.33 in 10.0 mi West 5.8 mph - N/A   Clear
2:15 PM 73.4 °F - 39.2 °F 29% 30.32 in 10.0 mi NW 6.9 mph - N/A   Clear
2:35 PM 73.4 °F - 39.2 °F 29% 30.32 in 10.0 mi WNW 4.6 mph - N/A   Clear
2:55 PM 73.4 °F - 39.2 °F 29% 30.32 in 10.0 mi NNW 5.8 mph - N/A   Clear
3:15 PM 73.4 °F - 39.2 °F 29% 30.31 in 10.0 mi North 4.6 mph - N/A   Clear
3:35 PM 73.4 °F - 37.4 °F 27% 30.31 in 10.0 mi NNW 3.5 mph - N/A   Clear
3:55 PM 73.4 °F - 37.4 °F 27% 30.31 in 10.0 mi NNW 8.1 mph - N/A   Clear
4:15 PM 73.4 °F - 37.4 °F 27% 30.31 in 10.0 mi North 6.9 mph - N/A   Clear
4:35 PM 73.4 °F - 37.4 °F 27% 30.31 in 10.0 mi NW 4.6 mph - N/A   Clear
4:55 PM 71.6 °F - 37.4 °F 29% 30.31 in 10.0 mi NNW 6.9 mph - N/A   Clear
5:15 PM 71.6 °F - 37.4 °F 29% 30.31 in 10.0 mi NW 8.1 mph - N/A   Clear
5:35 PM 69.8 °F - 37.4 °F 31% 30.31 in 10.0 mi NNW 5.8 mph - N/A   Clear
5:55 PM 69.8 °F - 35.6 °F 28% 30.31 in 10.0 mi North 3.5 mph - N/A   Clear
6:15 PM 66.2 °F - 35.6 °F 32% 30.32 in 10.0 mi North 3.5 mph - N/A   Clear
6:35 PM 64.4 °F - 37.4 °F 37% 30.32 in 10.0 mi Calm Calm - N/A   Clear
6:55 PM 64.4 °F - 39.2 °F 40% 30.32 in 10.0 mi NE 4.6 mph - N/A   Clear
7:15 PM 62.6 °F - 39.2 °F 42% 30.32 in 10.0 mi Calm Calm - N/A   Clear
7:35 PM 57.2 °F - 39.2 °F 51% 30.33 in 10.0 mi Calm Calm - N/A   Clear
7:55 PM 57.2 °F - 37.4 °F 48% 30.33 in 10.0 mi Calm Calm - N/A   Clear
8:15 PM 57.2 °F - 39.2 °F 51% 30.33 in 10.0 mi Calm Calm - N/A   Clear
8:55 PM 55.4 °F - 41.0 °F 58% 30.34 in 10.0 mi Calm Calm - N/A   Clear
9:15 PM 53.6 °F - 39.2 °F 58% 30.35 in 10.0 mi Calm Calm - N/A   Clear
9:55 PM 51.8 °F - 37.4 °F 58% 30.35 in 10.0 mi Calm Calm - N/A   Clear
10:15 PM 51.8 °F - 37.4 °F 58% 30.35 in 10.0 mi SSE 3.5 mph - N/A   Clear
10:35 PM 51.8 °F - 37.4 °F 58% 30.35 in 10.0 mi SE 4.6 mph - N/A   Clear
10:55 PM 51.8 °F - 37.4 °F 58% 30.34 in 10.0 mi SE 5.8 mph - N/A   Clear
11:15 PM 53.6 °F - 37.4 °F 54% 30.34 in 10.0 mi SE 5.8 mph - N/A   Clear
11:35 PM 53.6 °F - 39.2 °F 58% 30.33 in 10.0 mi SE 8.1 mph - N/A   Clear
11:55 PM 55.4 °F - 37.4 °F 51% 30.33 in 10.0 mi SE 9.2 mph - N/A   Clear